Leonardo Carvalho

Olheiro - Cruzeiro
19 Ago 2027
Quinta-feira
Processo

Personalidade

Adaptabilidade (18) Ambição (7) Controvérsia (10) Lealdade (7) Pressão (1) Profissionalismo (4) Espírito Esportivo (5) Temperamento (10)

Perfil

Estilo de Treinamento Democrático
Licença Continental A
Determinação 13
Gestão de Pessoas 9
Motivação 7
Disciplina 10
Satisfação no Trabalho
100%
Fadiga
0%
Função Olheiro
Salário 95.5K p/s
Contrato 14.03.2030

Desempenho

Comportamento Bom
Eficácia do Treinamento
46%
Desenvolvimento do Jogador
45%
Prevenção de Lesões
25%
Implementação Tática
25%

Eventos Recentes

Participou de uma reunião de recrutamento 7d atrás
Participou de uma reunião de recrutamento 7d atrás
Participou de uma reunião de recrutamento 14d atrás
Participou de uma reunião de recrutamento 14d atrás
Participou de uma reunião de recrutamento 21d atrás
Participou de uma reunião de recrutamento 21d atrás
Recomendou um alvo de transferência 21d atrás
Apresentou um dossiê à direção 28d atrás

Monitorando agora

201
Jogador Clube Status Habilidade Confiança Observado Última observação Último voto
Toby Collyer West Bromwich Albion Ativo 133 / 134 40% 2 31.05.2027 -
Matías Soulé AS Roma Ativo 156 / 146 40% 2 31.05.2027 -
Isaac Price West Bromwich Albion Ativo 122 / 127 40% 1 31.05.2027 -
Mohamed-Ali Cho Hull City Ativo 134 / 143 40% 4 30.05.2027 -
Joe Gelhardt Hull City Ativo 135 / 141 40% 2 30.05.2027 -
Dango Ouattara Brentford Ativo 155 / 138 40% 2 30.05.2027 -
Nicolas Jackson Aston Villa Ativo 154 / 148 40% 2 30.05.2027 -
Carlos Alcaraz Everton Ativo 149 / 139 40% 1 30.05.2027 -
Stanley Mills Oxford United Ativo 119 / 132 40% 1 30.05.2027 -
Gonçalo Ramos AC Milan Ativo 158 / 149 40% 1 29.05.2027 -
Thiago Brentford Ativo 144 / 154 40% 1 29.05.2027 -
Nicolò Zaniolo Udinese Ativo 149 / 133 40% 1 29.05.2027 -
Morgan Whittaker Middlesbrough Ativo 140 / 139 40% 6 27.05.2027 -
Che Adams Torino Ativo 139 / 144 40% 1 27.05.2027 -
Petar Musa Adana Demirspor Ativo 134 / 126 40% 4 26.05.2027 -
Jack McGlynn Stoke City Ativo 128 / 138 40% 2 26.05.2027 -
Juanlu Bournemouth Ativo 144 / 143 40% 2 26.05.2027 Mais informações
Ethan Pye Stockport County Ativo 115 / 115 40% 3 26.05.2027 -
Jacques Ekomié Wrexham Ativo 132 / 134 40% 2 26.05.2027 -
Cher Ndour Fiorentina Ativo 129 / 140 40% 1 26.05.2027 -
Malick Fofana Sunderland Ativo 149 / 147 40% 1 26.05.2027 -
Tino Livramento Newcastle United Ativo 155 / 167 40% 2 25.05.2027 -
Zian Flemming Ipswich Town Ativo 136 / 132 40% 4 24.05.2027 -
Samu Aghehowa AS Roma Ativo 156 / 161 40% 1 24.05.2027 -
Ismaïla Sarr Crystal Palace Ativo 155 / 156 40% 2 21.05.2027 -
Oli McBurnie Hull City Ativo 141 / 128 40% 2 20.05.2027 -
Tammy Abraham Aston Villa Ativo 140 / 140 40% 1 20.05.2027 -
Assane Diao Lazio Ativo 144 / 156 40% 2 19.05.2027 -
Matheus Araújo Oeste Ativo 89 / 89 30% 1 / 1m 19.05.2027 -
Gabriel Martinelli Brighton Ativo 165 / 163 40% 1 19.05.2027 -
Othmane Maamma Watford Ativo 128 / 126 40% 1 19.05.2027 -
Alex Robertson Cardiff City Ativo 127 / 130 40% 1 19.05.2027 -
Alex Lowry Wycombe Wanderers Ativo 123 / 111 40% 1 19.05.2027 -
Moussa Dembélé CR Belouizdad Ativo 129 / 133 40% 2 17.05.2027 -
Brodie Spencer Oxford United Ativo 125 / 131 40% 1 17.05.2027 -
Jarrad Branthwaite Everton Ativo 158 / 144 40% 1 17.05.2027 -
Lautaro Martínez Inter Ativo 177 / 160 40% 1 15.05.2027 -
Donyell Malen AS Roma Ativo 151 / 159 40% 1 15.05.2027 Mais informações
Bertrand Traoré Sunderland Ativo 138 / 137 40% 3 14.05.2027 -
Georginio Rutter Brighton Ativo 149 / 140 40% 1 14.05.2027 -
Adam Wharton Crystal Palace Ativo 157 / 153 40% 2 13.05.2027 -
Yeremy Pino Crystal Palace Ativo 143 / 154 40% 1 13.05.2027 Mais informações
Tom Fellows Southampton Ativo 129 / 122 40% 4 12.05.2027 -
Murillo Nottingham Forest Ativo 152 / 164 40% 2 12.05.2027 -
Yehor Yarmoliuk Brentford Ativo 155 / 156 40% 2 12.05.2027 -
Justin Devenny Stoke City Ativo 127 / 118 40% 1 12.05.2027 -
Williams Manyama SuperSport United Ativo 121 / 121 40% 1 12.05.2027 -
Mohamed Belloumi Hull City Ativo 144 / 138 40% 1 12.05.2027 -
Lewis Morgan SuperSport United Ativo 123 / 122 40% 2 10.05.2027 -
Luis Vázquez Birmingham Ativo 134 / 120 40% 4 07.05.2027 -
Ethan Williams Peterborough United Ativo 113 / 117 40% 2 07.05.2027 -
Rodrigo Gomes Wolverhampton Ativo 141 / 148 40% 1 07.05.2027 -
Kellen Fisher Norwich City Ativo 116 / 116 40% 1 05.05.2027 -
Noah Sadiki Sunderland Ativo 149 / 150 40% 1 03.05.2027 -
Callum Doyle Wrexham Ativo 134 / 140 40% 2 02.05.2027 -
Habib Diarra Sunderland Ativo 135 / 139 40% 4 01.05.2027 -
Louie Barry Sheffield Wednesday Ativo 125 / 114 40% 1 30.04.2027 -
Richard Koné Queens Park Rangers Ativo 119 / 114 40% 1 30.04.2027 -
Bosun Lawal Stoke City Ativo 130 / 127 40% 1 29.04.2027 -
Femi Seriki Sheffield United Ativo 126 / 125 40% 1 29.04.2027 -
Brandon Aguilera Rio Ave Ativo 118 / 122 40% 5 25.04.2027 -
Taichi Fukui Arouca Ativo 130 / 128 40% 4 25.04.2027 -
Lohann Doucet Vitoria Guimaraes Ativo 126 / 125 40% 6 25.04.2027 -
Pau Víctor AVS Ativo 134 / 148 40% 1 25.04.2027 -
Lorougnon Gohi Académico de Viseu Ativo 119 / 108 40% 1 25.04.2027 -
Ollie Tanner Cardiff City Ativo 110 / 126 40% 1 25.04.2027 -
Kélian Nsona Casa Pia Ativo 116 / 124 40% 4 22.04.2027 -
Yousef Salech Cardiff City Ativo 129 / 114 40% 2 22.04.2027 -
Mateo Pellegrino Fiorentina Ativo 136 / 133 40% 1 22.04.2027 -
Zeidane Inoussa Swansea City Ativo 121 / 131 40% 1 22.04.2027 -
Mandla Erasmus SuperSport United Ativo 117 / 129 40% 5 21.04.2027 -
Sidny Lopes Cabral Trabzonspor Ativo 138 / 123 40% 1 21.04.2027 -
Rodrigo Pinheiro Famalicao Ativo 130 / 119 40% 2 20.04.2027 -
Fotis Ioannidis Rio Ave Ativo 145 / 133 40% 2 18.04.2027 -
Juninho Pumas UNAM Ativo 129 / 129 40% 2 18.04.2027 -
Hwang Hee-Chan Wolverhampton Ativo 134 / 129 40% 2 18.04.2027 -
Kevin Fulham Ativo 145 / 157 40% 1 18.04.2027 -
Luís Guilherme Sporting CP Ativo 134 / 133 40% 2 15.04.2027 -
Dominic Calvert-Lewin Leeds United Ativo 143 / 145 40% 3 14.04.2027 -
Mario Dorgeles Braga Ativo 140 / 124 40% 4 13.04.2027 -
Hugo Cuypers Monterrey Ativo 132 / 137 40% 3 13.04.2027 -
Teden Mengi Luton Town Ativo 122 / 113 40% 3 12.04.2027 -
Razvan Balasa Crvena Zvezda Ativo 141 / 134 40% 1 09.04.2027 -
Gabriel Veron Porto Ativo 123 / 126 40% 7 08.04.2027 -
Edoardo Bove Watford Ativo 126 / 121 40% 2 05.04.2027 -
João Simões Sporting CP Ativo 128 / 145 40% 1 05.04.2027 -
Charlie Webster Burton Albion Ativo 118 / 111 40% 1 05.04.2027 -
Gianluca Prestianni Benfica Ativo 133 / 148 40% 4 04.04.2027 -
Cian Ashford Cardiff City Ativo 124 / 132 40% 3 04.04.2027 -
Heorhii Sudakov Benfica Ativo 152 / 151 40% 4 04.04.2027 -
Iván Fresneda Sporting CP Ativo 139 / 136 40% 6 03.04.2027 -
Tidjany Touré Gil Vicente Ativo 119 / 109 40% 2 03.04.2027 -
Josh Doig Sassuolo Ativo 128 / 146 40% 1 03.04.2027 -
Joaquín Panichelli Le Havre AC Ativo 146 / 147 40% 1 02.04.2027 -
Salvador Blopá Casa Pia Ativo 119 / 121 40% 2 01.04.2027 -
Shea Charles Southampton Ativo 138 / 147 40% 3 01.04.2027 -
Kristoffer Lund Birmingham Ativo 132 / 121 40% 1 01.04.2027 -
Ansu Fati Monaco Ativo 135 / 136 40% 3 29.03.2027 -
Kwadwo Baah Watford Ativo 128 / 118 40% 1 26.03.2027 -
Lee Hyun-Ju Arouca Ativo 121 / 126 40% 1 25.03.2027 -
Andrea Pinamonti Lazio Ativo 147 / 144 40% 1 23.03.2027 -
Alberto Costa Porto Ativo 153 / 150 40% 5 22.03.2027 Observar
Martín Tejón Maritimo Ativo 114 / 127 40% 3 22.03.2027 -
Lovro Zvonarek Estrela da Amadora Ativo 122 / 137 40% 1 19.03.2027 -
Tamás Szűcs Famalicao Ativo 115 / 124 40% 1 19.03.2027 -
Zeki Amdouni Burnley Ativo 136 / 122 40% 1 17.03.2027 -
Aune Heggebø West Bromwich Albion Ativo 122 / 136 40% 1 17.03.2027 -
Pedro Bondo Famalicao Ativo 112 / 119 40% 2 15.03.2027 -
Mduduzi Shabalala Kaizer Chiefs Ativo 113 / 115 40% 2 15.03.2027 -
Félix Lemaréchal Club Brugge Ativo 136 / 147 40% 1 12.03.2027 -
Javier Mena Portimonense Ativo 120 / 112 40% 1 12.03.2027 -
Pablo Monroy Pumas UNAM Ativo 114 / 133 40% 1 12.03.2027 -
Tony Strata Vitoria Guimaraes Ativo 119 / 123 40% 2 05.03.2027 -
Zeno Debast Sporting CP Ativo 146 / 131 40% 1 05.03.2027 -
Emi Rodriguez Leon Ativo 117 / 125 40% 2 02.03.2027 -
Mateja Stjepanović Moreirense Ativo 113 / 123 40% 3 01.03.2027 -
Gonçalo Nogueira Vitoria Guimaraes Ativo 114 / 124 40% 2 01.03.2027 -
Tomás Araújo Benfica Ativo 156 / 151 40% 3 28.02.2027 -
Marvin Elimbi Gil Vicente Ativo 117 / 128 40% 3 26.02.2027 -
Pedro Vite Pumas UNAM Ativo 124 / 124 40% 1 26.02.2027 -
Ilay Camara Anderlecht Ativo 126 / 120 40% 1 21.02.2027 -
Kevin Vazquez Cruz Azul Ativo 135 / 140 40% 1 21.02.2027 -
Beni Mukendi Vitoria Guimaraes Ativo 131 / 121 40% 2 20.02.2027 -
Marlon Gomes Shakhtar Ativo 138 / 143 40% 1 20.02.2027 -
Fidel Ambríz Monterrey Ativo 137 / 121 40% 1 19.02.2027 -
Hugo Pérez Torreense Ativo 121 / 110 40% 1 16.02.2027 -
Hugo Félix Tondela Ativo 116 / 132 40% 2 14.02.2027 -
Bright Arrey-Mbi Braga Ativo 127 / 131 40% 3 12.02.2027 -
Omar Campos Cruz Azul Ativo 131 / 113 40% 1 06.02.2027 -
Jonás Luna Santa Clara Ativo 121 / 128 40% 3 28.11.2026 -
Ezekiel Kwame Alladoh Philadelphia Union Ativo 113 / 117 40% 2 28.11.2026 -
Mathis Jangeal Famalicao Ativo 96 / 100 40% 1 28.11.2026 -
Roberto Fernández Braga Ativo 136 / 152 40% 3 27.11.2026 -
Andrés Gómez Vasco da Gama Ativo 136 / 140 40% 2 26.11.2026 -
Lucas Piton Vasco da Gama Ativo 135 / 138 40% 3 26.11.2026 -
Jordan Beyer Burnley Ativo 142 / 122 40% 2 26.11.2026 -
Toni Tamarit Alverca Ativo 108 / 118 40% 3 21.11.2026 -
Samuel Lino Flamengo Ativo 144 / 146 40% 3 21.11.2026 -
Thulani Erasmus Platinum Stars Ativo 106 / 99 40% 1 21.11.2026 -
Jack Rudoni Coventry City Ativo 125 / 139 40% 1 21.11.2026 -
Richard Ledezma Guadalajara Ativo 142 / 133 40% 1 20.11.2026 -
Erick Sánchez OGC Nice Ativo 132 / 130 40% 1 17.11.2026 -
Alan Varela Porto Ativo 150 / 148 40% 3 16.11.2026 -
Sikou Niakaté Braga Ativo 131 / 126 40% 5 16.11.2026 -
Eduardo Quaresma Sporting CP Ativo 135 / 138 40% 2 16.11.2026 -
Rocco Vata Watford Ativo 124 / 136 40% 3 15.11.2026 -
Rayan Bournemouth Ativo 131 / 130 40% 1 15.11.2026 -
Sergi Altimira Sporting CP Ativo 133 / 138 40% 4 14.11.2026 -
Nicolás Fernández Mercau Shakhtar Ativo 138 / 132 40% 1 14.11.2026 -
Mika Mármol Feyenoord Ativo 142 / 147 40% 1 11.11.2026 -
Stefanos Tzimas Brighton Ativo 136 / 151 40% 3 10.11.2026 -
Hojjat Ahmadi Esteghlal Khuzestan Ativo 90 / 112 40% 1 10.11.2026 -
Iwan Morgan Grimsby Town Ativo 100 / 104 40% 4 08.11.2026 -
Santiago Sosa Vasco da Gama Ativo 133 / 130 40% 1 07.11.2026 -
Victor Froholdt Porto Ativo 151 / 151 40% 3 05.11.2026 -
Richard Gonzalez Chamois Niortais Ativo 122 / 128 40% 1 05.11.2026 -
Juan Ignacio Nardoni Grêmio Ativo 133 / 127 40% 1 04.11.2026 -
Markus Jensen Nacional Ativo 97 / 107 40% 3 01.11.2026 -
Roméo Beney Famalicao Ativo 116 / 104 40% 3 01.11.2026 -
Kauã Elias Anderlecht Ativo 123 / 144 40% 1 01.11.2026 -
Caio Alexandre Bahia Ativo 135 / 131 40% 2 30.10.2026 -
Víctor Gómez Braga Ativo 139 / 131 40% 4 30.10.2026 -
Imrân Louza Watford Ativo 126 / 131 40% 1 30.10.2026 -
Cristian Medina Botafogo Ativo 124 / 127 40% 1 29.10.2026 -
Leandro Barreiro Benfica Ativo 141 / 145 40% 6 24.10.2026 -
Eric Ramires Bragantino Ativo 129 / 132 40% 2 24.10.2026 -
Geny Sporting CP Ativo 144 / 139 40% 2 24.10.2026 -
Rafik Guitane Estoril Praia Ativo 126 / 116 40% 2 21.10.2026 -
Alexandro Bernabei Internacional Ativo 126 / 129 40% 1 18.10.2026 -
Flynn Downes Southampton Ativo 135 / 131 40% 1 15.10.2026 -
Tiago Palacios Estudiantes Ativo 127 / 136 40% 1 14.10.2026 -
Alan Lescano Argentinos Juniors Ativo 134 / 130 40% 1 14.10.2026 -
Archie Goodwin Charlotte Football Club Ativo 101 / 106 40% 2 12.10.2026 -
Rodrigo Zalazar Sporting CP Ativo 149 / 161 40% 1 12.10.2026 -
Leif Davis Ipswich Town Ativo 138 / 133 40% 2 10.10.2026 -
Paulinho Palmeiras Ativo 137 / 147 40% 1 08.10.2026 -
Gonçalo Inácio Sporting CP Ativo 146 / 151 40% 1 07.10.2026 Mais informações
Leo Castledine Middlesbrough Ativo 130 / 132 40% 4 04.10.2026 -
Jordan Holsgrove Estoril Praia Ativo 127 / 136 40% 1 04.10.2026 -
Gabriel Silva Sporting CP Ativo 97 / 105 40% 1 04.10.2026 -
Dinis Pinto Moreirense Ativo 131 / 126 40% 1 02.10.2026 -
Erick Pulga Bahia Ativo 126 / 124 40% 1 02.10.2026 -
Santi García Gil Vicente Ativo 133 / 128 40% 1 29.09.2026 -
Inti López River Plate Ativo 96 / 101 40% 1 24.09.2026 -
Matías Fernández-Pardo Newcastle United Ativo 140 / 139 40% 1 22.09.2026 -
Ilyas Ansah Hull City Ativo 128 / 124 40% 1 22.09.2026 -
Danilo Botafogo Ativo 137 / 141 40% 1 22.09.2026 -
Emerson Royal Flamengo Ativo 137 / 138 40% 1 18.09.2026 -
Gabriel Gudmundsson Leeds United Ativo 141 / 128 40% 1 16.09.2026 -
Gustaf Lagerbielke Braga Ativo 133 / 146 40% 1 12.09.2026 -
Bobby Thomas Coventry City Ativo 125 / 122 40% 1 12.09.2026 -
Henry Mosquera Bragantino Ativo 125 / 134 40% 1 11.09.2026 -
Ramón Juárez Club America Ativo 139 / 132 40% 1 07.09.2026 -
Agustín Ruberto River Plate Ativo 116 / 125 40% 3 05.09.2026 -
Léo Jacó Santa Clara Ativo 92 / 88 40% 2 25.08.2026 -
Ryan Oné Sheffield United Ativo 99 / 120 40% 1 16.08.2026 -
André Luís Mirassol Ativo 123 / 123 30% 1 / 1m 12.08.2026 -
Mateus Mané Manchester United Ativo 134 / 134 40% 1 12.08.2026 -
Jovan Milošević Braga Ativo 112 / 133 40% 1 08.08.2026 -
Dawda Camara Alverca Ativo 108 / 130 40% 1 01.08.2026 -
Jonathan Calleri Sport Recife Ativo 141 / 140 40% 1 01.08.2026 -